sensor_id;sensor_type;location;lat;lon;timestamp;pressure;altitude;pressure_sealevel;temperature;humidity
12219;BME280;6172;42.646;23.344;2024-03-22T00:01:11;94623.88;;;5.08;68.84
12219;BME280;6172;42.646;23.344;2024-03-22T00:03:38;94626.94;;;5.00;70.18
12219;BME280;6172;42.646;23.344;2024-03-22T00:06:08;94631.50;;;4.82;71.29
12219;BME280;6172;42.646;23.344;2024-03-22T00:08:35;94632.28;;;4.86;74.13
12219;BME280;6172;42.646;23.344;2024-03-22T00:11:05;94632.69;;;4.88;74.01
12219;BME280;6172;42.646;23.344;2024-03-22T00:13:34;94627.97;;;4.74;75.85
12219;BME280;6172;42.646;23.344;2024-03-22T00:16:00;94628.75;;;4.78;76.92
12219;BME280;6172;42.646;23.344;2024-03-22T00:18:27;94632.63;;;4.74;78.92
12219;BME280;6172;42.646;23.344;2024-03-22T00:20:52;94625.28;;;4.71;77.38
12219;BME280;6172;42.646;23.344;2024-03-22T00:23:23;94630.22;;;4.65;78.38
12219;BME280;6172;42.646;23.344;2024-03-22T00:25:49;94620.63;;;4.68;81.21
12219;BME280;6172;42.646;23.344;2024-03-22T00:28:17;94626.81;;;4.72;81.81
12219;BME280;6172;42.646;23.344;2024-03-22T00:30:44;94634.44;;;4.56;80.90
12219;BME280;6172;42.646;23.344;2024-03-22T00:33:12;94631.38;;;4.61;81.20
12219;BME280;6172;42.646;23.344;2024-03-22T00:35:38;94637.19;;;4.66;82.34
12219;BME280;6172;42.646;23.344;2024-03-22T00:38:08;94634.41;;;4.52;83.13
12219;BME280;6172;42.646;23.344;2024-03-22T00:40:36;94632.16;;;4.61;83.62
12219;BME280;6172;42.646;23.344;2024-03-22T00:43:04;94637.19;;;4.66;82.10
12219;BME280;6172;42.646;23.344;2024-03-22T00:45:31;94636.44;;;4.73;82.50
12219;BME280;6172;42.646;23.344;2024-03-22T00:48:05;94644.09;;;4.60;85.55
12219;BME280;6172;42.646;23.344;2024-03-22T00:50:31;94640.16;;;4.00;89.59
12219;BME280;6172;42.646;23.344;2024-03-22T00:53:00;94642.97;;;3.71;91.01
12219;BME280;6172;42.646;23.344;2024-03-22T00:55:28;94642.94;;;4.11;88.28
12219;BME280;6172;42.646;23.344;2024-03-22T00:57:56;94635.75;;;4.22;87.95
12219;BME280;6172;42.646;23.344;2024-03-22T01:00:24;94622.59;;;4.13;89.77
12219;BME280;6172;42.646;23.344;2024-03-22T01:02:52;94639.66;;;4.31;88.58
12219;BME280;6172;42.646;23.344;2024-03-22T01:05:18;94630.91;;;4.45;87.00
12219;BME280;6172;42.646;23.344;2024-03-22T01:07:51;94617.03;;;4.46;85.72
12219;BME280;6172;42.646;23.344;2024-03-22T01:10:29;94641.81;;;4.66;84.09
12219;BME280;6172;42.646;23.344;2024-03-22T01:13:00;94633.00;;;4.72;80.24
12219;BME280;6172;42.646;23.344;2024-03-22T01:15:27;94639.13;;;4.66;78.84
12219;BME280;6172;42.646;23.344;2024-03-22T01:17:55;94636.91;;;4.82;77.19
12219;BME280;6172;42.646;23.344;2024-03-22T01:20:22;94636.16;;;4.85;75.93
12219;BME280;6172;42.646;23.344;2024-03-22T01:22:49;94639.25;;;4.90;75.02
12219;BME280;6172;42.646;23.344;2024-03-22T01:25:15;94629.19;;;4.84;73.14
12219;BME280;6172;42.646;23.344;2024-03-22T01:27:43;94637.38;;;4.98;68.55
12219;BME280;6172;42.646;23.344;2024-03-22T01:30:12;94638.56;;;5.04;67.71
12219;BME280;6172;42.646;23.344;2024-03-22T01:32:39;94623.03;;;4.87;66.73
12219;BME280;6172;42.646;23.344;2024-03-22T01:35:06;94630.06;;;5.05;66.60
12219;BME280;6172;42.646;23.344;2024-03-22T01:37:35;94627.41;;;5.12;66.28
12219;BME280;6172;42.646;23.344;2024-03-22T01:40:02;94628.56;;;5.18;64.56
12219;BME280;6172;42.646;23.344;2024-03-22T01:42:30;94639.00;;;5.23;63.42
12219;BME280;6172;42.646;23.344;2024-03-22T01:44:56;94620.84;;;5.13;61.98
12219;BME280;6172;42.646;23.344;2024-03-22T01:47:25;94623.97;;;5.22;62.16
12219;BME280;6172;42.646;23.344;2024-03-22T01:49:56;94628.59;;;5.29;61.09
12219;BME280;6172;42.646;23.344;2024-03-22T01:52:23;94628.25;;;5.41;60.71
12219;BME280;6172;42.646;23.344;2024-03-22T01:54:52;94622.47;;;5.39;60.54
12219;BME280;6172;42.646;23.344;2024-03-22T01:57:23;94625.53;;;5.34;61.89
12219;BME280;6172;42.646;23.344;2024-03-22T01:59:49;94627.91;;;5.53;61.24
12219;BME280;6172;42.646;23.344;2024-03-22T02:02:18;94621.72;;;5.45;60.69
12219;BME280;6172;42.646;23.344;2024-03-22T02:04:46;94632.53;;;5.56;61.27
12219;BME280;6172;42.646;23.344;2024-03-22T02:07:13;94635.38;;;4.88;68.19
12219;BME280;6172;42.646;23.344;2024-03-22T02:09:38;94637.50;;;4.51;74.29
12219;BME280;6172;42.646;23.344;2024-03-22T02:12:06;94634.47;;;4.59;76.54
12219;BME280;6172;42.646;23.344;2024-03-22T02:14:32;94631.97;;;4.37;79.37
12219;BME280;6172;42.646;23.344;2024-03-22T02:16:59;94615.75;;;4.26;82.48
12219;BME280;6172;42.646;23.344;2024-03-22T02:19:25;94622.63;;;4.24;84.81
12219;BME280;6172;42.646;23.344;2024-03-22T02:21:53;94628.84;;;4.28;85.24
12219;BME280;6172;42.646;23.344;2024-03-22T02:24:21;94631.88;;;4.23;86.24
12219;BME280;6172;42.646;23.344;2024-03-22T02:26:48;94630.34;;;4.22;87.23
12219;BME280;6172;42.646;23.344;2024-03-22T02:29:14;94641.03;;;4.11;88.30
12219;BME280;6172;42.646;23.344;2024-03-22T02:31:41;94642.50;;;4.02;90.83
12219;BME280;6172;42.646;23.344;2024-03-22T02:34:08;94647.06;;;3.98;93.13
12219;BME280;6172;42.646;23.344;2024-03-22T02:36:35;94655.91;;;3.95;94.12
12219;BME280;6172;42.646;23.344;2024-03-22T02:39:03;94642.06;;;4.00;93.55
12219;BME280;6172;42.646;23.344;2024-03-22T02:41:31;94654.06;;;4.06;93.76
12219;BME280;6172;42.646;23.344;2024-03-22T02:46:42;94656.06;;;3.72;97.63
12219;BME280;6172;42.646;23.344;2024-03-22T02:49:09;94657.59;;;3.70;99.44
12219;BME280;6172;42.646;23.344;2024-03-22T02:51:35;94651.63;;;3.50;99.17
12219;BME280;6172;42.646;23.344;2024-03-22T02:54:02;94660.53;;;3.58;100.00
12219;BME280;6172;42.646;23.344;2024-03-22T02:56:28;94666.59;;;3.48;100.00
12219;BME280;6172;42.646;23.344;2024-03-22T02:58:57;94677.38;;;3.48;100.00
12219;BME280;6172;42.646;23.344;2024-03-22T03:01:23;94680.28;;;3.32;100.00
12219;BME280;6172;42.646;23.344;2024-03-22T03:03:50;94676.72;;;3.24;100.00
12219;BME280;6172;42.646;23.344;2024-03-22T03:06:16;94677.63;;;3.36;100.00
12219;BME280;6172;42.646;23.344;2024-03-22T03:08:45;94671.44;;;3.02;100.00
12219;BME280;6172;42.646;23.344;2024-03-22T03:11:11;94679.63;;;3.09;100.00
12219;BME280;6172;42.646;23.344;2024-03-22T03:13:38;94677.44;;;3.18;100.00
12219;BME280;6172;42.646;23.344;2024-03-22T03:16:06;94686.16;;;3.08;100.00
12219;BME280;6172;42.646;23.344;2024-03-22T03:18:33;94689.81;;;3.26;100.00
12219;BME280;6172;42.646;23.344;2024-03-22T03:20:59;94689.34;;;3.17;100.00
12219;BME280;6172;42.646;23.344;2024-03-22T03:23:26;94695.28;;;3.33;100.00
12219;BME280;6172;42.646;23.344;2024-03-22T03:25:52;94694.81;;;3.24;100.00
12219;BME280;6172;42.646;23.344;2024-03-22T03:28:19;94696.22;;;3.14;100.00
12219;BME280;6172;42.646;23.344;2024-03-22T03:30:44;94694.09;;;3.27;100.00
12219;BME280;6172;42.646;23.344;2024-03-22T03:33:13;94697.06;;;3.18;100.00
12219;BME280;6172;42.646;23.344;2024-03-22T03:35:39;94699.63;;;3.11;100.00
12219;BME280;6172;42.646;23.344;2024-03-22T03:38:06;94700.22;;;3.27;100.00
12219;BME280;6172;42.646;23.344;2024-03-22T03:40:32;94701.16;;;3.09;100.00
12219;BME280;6172;42.646;23.344;2024-03-22T03:42:59;94696.31;;;2.92;100.00
12219;BME280;6172;42.646;23.344;2024-03-22T03:45:25;94696.50;;;2.76;100.00
12219;BME280;6172;42.646;23.344;2024-03-22T03:47:52;94707.53;;;2.68;100.00
12219;BME280;6172;42.646;23.344;2024-03-22T03:50:19;94713.78;;;2.27;100.00
12219;BME280;6172;42.646;23.344;2024-03-22T03:52:46;94715.78;;;2.30;100.00
12219;BME280;6172;42.646;23.344;2024-03-22T03:55:12;94725.44;;;2.34;100.00
12219;BME280;6172;42.646;23.344;2024-03-22T03:57:39;94714.91;;;2.48;100.00
12219;BME280;6172;42.646;23.344;2024-03-22T04:00:06;94709.28;;;2.57;100.00
12219;BME280;6172;42.646;23.344;2024-03-22T04:02:33;94716.13;;;2.51;100.00
12219;BME280;6172;42.646;23.344;2024-03-22T04:04:59;94722.03;;;2.37;100.00
12219;BME280;6172;42.646;23.344;2024-03-22T04:07:28;94725.78;;;2.29;100.00
12219;BME280;6172;42.646;23.344;2024-03-22T04:09:54;94722.25;;;2.51;100.00
12219;BME280;6172;42.646;23.344;2024-03-22T04:12:22;94712.66;;;2.50;100.00
12219;BME280;6172;42.646;23.344;2024-03-22T04:14:47;94728.59;;;2.62;100.00
12219;BME280;6172;42.646;23.344;2024-03-22T04:17:14;94728.59;;;2.62;100.00
12219;BME280;6172;42.646;23.344;2024-03-22T04:19:40;94725.00;;;2.55;100.00
12219;BME280;6172;42.646;23.344;2024-03-22T04:22:07;94718.81;;;2.51;100.00
12219;BME280;6172;42.646;23.344;2024-03-22T04:24:35;94729.31;;;2.59;100.00
12219;BME280;6172;42.646;23.344;2024-03-22T04:27:02;94734.34;;;2.61;100.00
12219;BME280;6172;42.646;23.344;2024-03-22T04:29:28;94735.50;;;2.15;100.00
12219;BME280;6172;42.646;23.344;2024-03-22T04:31:56;94730.50;;;2.13;100.00
12219;BME280;6172;42.646;23.344;2024-03-22T04:34:22;94732.28;;;2.06;100.00
12219;BME280;6172;42.646;23.344;2024-03-22T04:36:50;94736.69;;;1.95;100.00
12219;BME280;6172;42.646;23.344;2024-03-22T04:39:19;94745.00;;;1.86;100.00
12219;BME280;6172;42.646;23.344;2024-03-22T04:41:47;94742.06;;;1.95;100.00
12219;BME280;6172;42.646;23.344;2024-03-22T04:44:16;94737.22;;;1.81;100.00
12219;BME280;6172;42.646;23.344;2024-03-22T04:46:43;94753.28;;;1.78;100.00
12219;BME280;6172;42.646;23.344;2024-03-22T04:49:09;94746.81;;;1.82;100.00
12219;BME280;6172;42.646;23.344;2024-03-22T04:51:37;94760.41;;;1.89;100.00
12219;BME280;6172;42.646;23.344;2024-03-22T04:54:03;94752.94;;;2.02;100.00
12219;BME280;6172;42.646;23.344;2024-03-22T04:56:30;94753.41;;;2.07;100.00
12219;BME280;6172;42.646;23.344;2024-03-22T04:58:58;94764.53;;;2.28;100.00
12219;BME280;6172;42.646;23.344;2024-03-22T05:01:25;94746.66;;;2.17;100.00
12219;BME280;6172;42.646;23.344;2024-03-22T05:03:52;94744.69;;;2.14;100.00
12219;BME280;6172;42.646;23.344;2024-03-22T05:06:20;94745.00;;;2.31;100.00
12219;BME280;6172;42.646;23.344;2024-03-22T05:08:46;94759.25;;;2.35;100.00
12219;BME280;6172;42.646;23.344;2024-03-22T05:11:15;94761.19;;;2.35;100.00
12219;BME280;6172;42.646;23.344;2024-03-22T05:13:41;94766.09;;;2.29;100.00
12219;BME280;6172;42.646;23.344;2024-03-22T05:16:09;94759.88;;;2.48;100.00
12219;BME280;6172;42.646;23.344;2024-03-22T05:18:37;94756.31;;;2.66;100.00
12219;BME280;6172;42.646;23.344;2024-03-22T05:21:05;94764.59;;;2.80;100.00
12219;BME280;6172;42.646;23.344;2024-03-22T05:23:31;94774.44;;;2.95;100.00
12219;BME280;6172;42.646;23.344;2024-03-22T05:25:58;94769.41;;;2.94;100.00
12219;BME280;6172;42.646;23.344;2024-03-22T05:28:25;94781.91;;;3.05;100.00
12219;BME280;6172;42.646;23.344;2024-03-22T05:30:52;94774.16;;;3.30;100.00
12219;BME280;6172;42.646;23.344;2024-03-22T05:33:19;94782.25;;;3.30;100.00
12219;BME280;6172;42.646;23.344;2024-03-22T05:35:46;94777.31;;;3.36;100.00
12219;BME280;6172;42.646;23.344;2024-03-22T05:38:14;94783.69;;;3.54;100.00
12219;BME280;6172;42.646;23.344;2024-03-22T05:40:41;94770.38;;;3.68;100.00
12219;BME280;6172;42.646;23.344;2024-03-22T05:43:07;94780.91;;;3.80;100.00
12219;BME280;6172;42.646;23.344;2024-03-22T05:45:34;94777.19;;;4.68;96.29
12219;BME280;6172;42.646;23.344;2024-03-22T05:48:00;94774.09;;;6.16;79.39
12219;BME280;6172;42.646;23.344;2024-03-22T05:50:30;94773.19;;;7.94;64.82
12219;BME280;6172;42.646;23.344;2024-03-22T05:52:56;94771.75;;;9.80;55.35
12219;BME280;6172;42.646;23.344;2024-03-22T05:55:23;94769.69;;;11.28;48.27
12219;BME280;6172;42.646;23.344;2024-03-22T05:57:52;94770.81;;;12.87;43.02
12219;BME280;6172;42.646;23.344;2024-03-22T06:00:20;94774.19;;;12.74;41.85
12219;BME280;6172;42.646;23.344;2024-03-22T06:02:46;94764.13;;;13.52;39.63
12219;BME280;6172;42.646;23.344;2024-03-22T06:05:13;94768.19;;;14.33;38.01
12219;BME280;6172;42.646;23.344;2024-03-22T06:07:40;94766.13;;;13.80;37.89
12219;BME280;6172;42.646;23.344;2024-03-22T06:10:09;94763.34;;;13.51;37.43
12219;BME280;6172;42.646;23.344;2024-03-22T06:12:35;94765.94;;;13.87;36.74
12219;BME280;6172;42.646;23.344;2024-03-22T06:15:03;94769.16;;;14.26;35.54
12219;BME280;6172;42.646;23.344;2024-03-22T06:17:31;94762.66;;;13.79;36.27
12219;BME280;6172;42.646;23.344;2024-03-22T06:19:58;94769.25;;;13.18;37.98
12219;BME280;6172;42.646;23.344;2024-03-22T06:22:25;94765.13;;;14.31;36.07
12219;BME280;6172;42.646;23.344;2024-03-22T06:24:53;94761.38;;;14.37;35.14
12219;BME280;6172;42.646;23.344;2024-03-22T06:27:19;94761.78;;;14.11;35.07
12219;BME280;6172;42.646;23.344;2024-03-22T06:29:46;94768.50;;;13.17;36.09
12219;BME280;6172;42.646;23.344;2024-03-22T06:32:12;94763.53;;;12.96;37.08
12219;BME280;6172;42.646;23.344;2024-03-22T06:34:39;94772.75;;;12.50;38.75
12219;BME280;6172;42.646;23.344;2024-03-22T06:37:05;94772.25;;;12.75;38.41
12219;BME280;6172;42.646;23.344;2024-03-22T06:39:35;94767.81;;;13.45;37.36
12219;BME280;6172;42.646;23.344;2024-03-22T06:42:03;94786.09;;;12.48;38.25
12219;BME280;6172;42.646;23.344;2024-03-22T06:44:30;94775.34;;;12.77;37.38
12219;BME280;6172;42.646;23.344;2024-03-22T06:46:57;94773.00;;;13.72;35.68
12219;BME280;6172;42.646;23.344;2024-03-22T06:49:24;94780.75;;;12.41;36.80
12219;BME280;6172;42.646;23.344;2024-03-22T06:51:51;94784.84;;;13.37;36.07
12219;BME280;6172;42.646;23.344;2024-03-22T06:54:18;94783.97;;;14.00;35.52
12219;BME280;6172;42.646;23.344;2024-03-22T06:56:44;94779.28;;;13.40;35.90
12219;BME280;6172;42.646;23.344;2024-03-22T06:59:12;94800.38;;;13.88;35.85
12219;BME280;6172;42.646;23.344;2024-03-22T07:01:39;94789.25;;;13.63;35.95
12219;BME280;6172;42.646;23.344;2024-03-22T07:04:06;94794.84;;;14.32;34.77
12219;BME280;6172;42.646;23.344;2024-03-22T07:06:32;94789.34;;;13.59;35.95
12219;BME280;6172;42.646;23.344;2024-03-22T07:08:59;94787.22;;;14.24;34.48
12219;BME280;6172;42.646;23.344;2024-03-22T07:11:25;94802.09;;;13.82;35.04
12219;BME280;6172;42.646;23.344;2024-03-22T07:13:52;94785.78;;;14.48;34.88
12219;BME280;6172;42.646;23.344;2024-03-22T07:16:20;94783.97;;;14.41;34.92
12219;BME280;6172;42.646;23.344;2024-03-22T07:18:47;94793.56;;;13.32;35.68
12219;BME280;6172;42.646;23.344;2024-03-22T07:21:14;94804.59;;;12.41;37.10
12219;BME280;6172;42.646;23.344;2024-03-22T07:23:41;94796.06;;;12.19;37.41
12219;BME280;6172;42.646;23.344;2024-03-22T07:26:07;94796.81;;;13.59;36.19
12219;BME280;6172;42.646;23.344;2024-03-22T07:28:34;94802.81;;;12.50;37.46
12219;BME280;6172;42.646;23.344;2024-03-22T07:31:00;94796.75;;;12.62;37.69
12219;BME280;6172;42.646;23.344;2024-03-22T07:33:31;94802.81;;;12.50;38.08
12219;BME280;6172;42.646;23.344;2024-03-22T07:36:01;94802.50;;;12.29;38.56
12219;BME280;6172;42.646;23.344;2024-03-22T07:38:28;94796.22;;;13.19;37.77
12219;BME280;6172;42.646;23.344;2024-03-22T07:40:54;94787.25;;;13.35;37.05
12219;BME280;6172;42.646;23.344;2024-03-22T07:43:21;94804.31;;;12.91;37.88
12219;BME280;6172;42.646;23.344;2024-03-22T07:45:47;94801.75;;;13.80;36.72
12219;BME280;6172;42.646;23.344;2024-03-22T07:48:16;94794.16;;;12.55;38.06
12219;BME280;6172;42.646;23.344;2024-03-22T07:50:44;94794.22;;;13.04;38.20
12219;BME280;6172;42.646;23.344;2024-03-22T07:53:11;94804.03;;;12.85;38.69
12219;BME280;6172;42.646;23.344;2024-03-22T07:55:39;94811.63;;;12.22;38.71
12219;BME280;6172;42.646;23.344;2024-03-22T07:58:06;94807.38;;;12.77;38.45
12219;BME280;6172;42.646;23.344;2024-03-22T08:00:32;94808.69;;;13.04;38.17
12219;BME280;6172;42.646;23.344;2024-03-22T08:02:59;94803.22;;;13.52;37.81
12219;BME280;6172;42.646;23.344;2024-03-22T08:05:25;94812.91;;;13.25;37.54
12219;BME280;6172;42.646;23.344;2024-03-22T08:07:53;94812.03;;;13.28;37.55
12219;BME280;6172;42.646;23.344;2024-03-22T08:10:19;94815.13;;;13.46;36.69
12219;BME280;6172;42.646;23.344;2024-03-22T08:12:46;94810.94;;;14.30;35.17
12219;BME280;6172;42.646;23.344;2024-03-22T08:15:14;94803.53;;;14.56;34.78
12219;BME280;6172;42.646;23.344;2024-03-22T08:17:43;94806.50;;;12.05;38.62
12219;BME280;6172;42.646;23.344;2024-03-22T08:20:09;94799.28;;;12.34;39.37
12219;BME280;6172;42.646;23.344;2024-03-22T08:22:36;94802.94;;;13.63;36.94
12219;BME280;6172;42.646;23.344;2024-03-22T08:25:04;94795.75;;;14.13;35.99
12219;BME280;6172;42.646;23.344;2024-03-22T08:27:33;94790.84;;;14.62;35.28
12219;BME280;6172;42.646;23.344;2024-03-22T08:30:02;94792.66;;;14.81;35.21
12219;BME280;6172;42.646;23.344;2024-03-22T08:32:30;94789.09;;;14.68;33.98
12219;BME280;6172;42.646;23.344;2024-03-22T08:34:56;94782.84;;;14.80;34.02
12219;BME280;6172;42.646;23.344;2024-03-22T08:37:23;94793.03;;;13.85;35.40
12219;BME280;6172;42.646;23.344;2024-03-22T08:39:49;94791.06;;;13.53;35.31
12219;BME280;6172;42.646;23.344;2024-03-22T08:42:19;94791.66;;;14.34;34.66
12219;BME280;6172;42.646;23.344;2024-03-22T08:44:45;94793.66;;;13.28;36.40
12219;BME280;6172;42.646;23.344;2024-03-22T08:47:11;94800.22;;;14.07;34.34
12219;BME280;6172;42.646;23.344;2024-03-22T08:49:37;94801.75;;;14.08;34.76
12219;BME280;6172;42.646;23.344;2024-03-22T08:52:07;94798.81;;;14.15;34.72
12219;BME280;6172;42.646;23.344;2024-03-22T08:54:33;94798.47;;;15.21;33.17
12219;BME280;6172;42.646;23.344;2024-03-22T08:56:59;94799.13;;;15.12;33.35
12219;BME280;6172;42.646;23.344;2024-03-22T08:59:27;94798.97;;;15.53;33.45
12219;BME280;6172;42.646;23.344;2024-03-22T09:01:54;94800.97;;;15.28;32.75
12219;BME280;6172;42.646;23.344;2024-03-22T09:04:20;94795.59;;;14.04;34.30
12219;BME280;6172;42.646;23.344;2024-03-22T09:06:47;94795.59;;;14.86;33.05
12219;BME280;6172;42.646;23.344;2024-03-22T09:09:13;94794.50;;;14.30;34.00
12219;BME280;6172;42.646;23.344;2024-03-22T09:11:40;94790.75;;;13.96;34.57
12219;BME280;6172;42.646;23.344;2024-03-22T09:14:07;94793.22;;;14.06;33.74
12219;BME280;6172;42.646;23.344;2024-03-22T09:16:35;94781.34;;;14.38;33.63
12219;BME280;6172;42.646;23.344;2024-03-22T09:19:01;94793.84;;;14.39;33.28
12219;BME280;6172;42.646;23.344;2024-03-22T09:21:28;94780.38;;;13.43;34.02
12219;BME280;6172;42.646;23.344;2024-03-22T09:23:57;94783.97;;;14.00;34.67
12219;BME280;6172;42.646;23.344;2024-03-22T09:26:23;94783.59;;;14.14;34.33
12219;BME280;6172;42.646;23.344;2024-03-22T09:28:49;94774.13;;;14.44;33.68
12219;BME280;6172;42.646;23.344;2024-03-22T09:31:21;94771.53;;;14.12;33.59
12219;BME280;6172;42.646;23.344;2024-03-22T09:33:51;94776.47;;;14.17;33.96
12219;BME280;6172;42.646;23.344;2024-03-22T09:36:20;94771.31;;;13.30;33.88
12219;BME280;6172;42.646;23.344;2024-03-22T09:38:47;94762.97;;;13.65;34.44
12219;BME280;6172;42.646;23.344;2024-03-22T09:41:14;94762.84;;;14.54;33.53
12219;BME280;6172;42.646;23.344;2024-03-22T09:43:43;94769.16;;;15.05;33.38
12219;BME280;6172;42.646;23.344;2024-03-22T09:46:16;94756.38;;;14.61;33.18
12219;BME280;6172;42.646;23.344;2024-03-22T09:48:44;94755.97;;;15.13;32.27
12219;BME280;6172;42.646;23.344;2024-03-22T09:51:13;94757.72;;;15.32;32.76
12219;BME280;6172;42.646;23.344;2024-03-22T09:53:44;94765.56;;;14.42;33.37
12219;BME280;6172;42.646;23.344;2024-03-22T09:56:11;94771.66;;;14.74;33.14
12219;BME280;6172;42.646;23.344;2024-03-22T09:58:41;94768.78;;;14.65;32.80
12219;BME280;6172;42.646;23.344;2024-03-22T10:01:07;94767.50;;;14.82;32.46
12219;BME280;6172;42.646;23.344;2024-03-22T10:03:34;94757.72;;;14.81;32.23
12219;BME280;6172;42.646;23.344;2024-03-22T10:06:02;94762.63;;;14.49;32.67
12219;BME280;6172;42.646;23.344;2024-03-22T10:08:31;94753.88;;;15.17;31.62
12219;BME280;6172;42.646;23.344;2024-03-22T10:11:01;94754.22;;;15.06;32.28
12219;BME280;6172;42.646;23.344;2024-03-22T10:13:28;94751.22;;;15.38;31.85
12219;BME280;6172;42.646;23.344;2024-03-22T10:15:55;94760.31;;;14.60;32.82
12219;BME280;6172;42.646;23.344;2024-03-22T10:18:23;94760.22;;;14.10;33.27
12219;BME280;6172;42.646;23.344;2024-03-22T10:20:59;94754.47;;;14.74;32.87
12219;BME280;6172;42.646;23.344;2024-03-22T10:23:26;94750.16;;;15.11;32.54
12219;BME280;6172;42.646;23.344;2024-03-22T10:25:54;94746.25;;;14.33;32.98
12219;BME280;6172;42.646;23.344;2024-03-22T10:28:20;94737.66;;;14.97;32.29
12219;BME280;6172;42.646;23.344;2024-03-22T10:30:50;94748.03;;;15.40;32.12
12219;BME280;6172;42.646;23.344;2024-03-22T10:33:20;94731.94;;;14.91;33.34
12219;BME280;6172;42.646;23.344;2024-03-22T10:35:50;94732.22;;;14.43;34.02
12219;BME280;6172;42.646;23.344;2024-03-22T10:38:19;94730.53;;;14.87;33.13
12219;BME280;6172;42.646;23.344;2024-03-22T10:40:45;94730.69;;;15.30;32.44
12219;BME280;6172;42.646;23.344;2024-03-22T10:43:14;94717.41;;;15.16;32.56
12219;BME280;6172;42.646;23.344;2024-03-22T10:45:41;94722.16;;;15.03;32.35
12219;BME280;6172;42.646;23.344;2024-03-22T10:48:10;94728.56;;;14.21;33.29
12219;BME280;6172;42.646;23.344;2024-03-22T10:50:39;94720.81;;;14.70;32.40
12219;BME280;6172;42.646;23.344;2024-03-22T10:53:09;94713.16;;;14.90;32.43
12219;BME280;6172;42.646;23.344;2024-03-22T10:55:38;94711.06;;;14.69;32.15
12219;BME280;6172;42.646;23.344;2024-03-22T10:58:05;94709.84;;;14.70;32.35
12219;BME280;6172;42.646;23.344;2024-03-22T11:00:34;94710.75;;;14.67;32.15
12219;BME280;6172;42.646;23.344;2024-03-22T11:03:02;94708.72;;;14.30;32.62
12219;BME280;6172;42.646;23.344;2024-03-22T11:05:29;94708.75;;;14.67;32.33
12219;BME280;6172;42.646;23.344;2024-03-22T11:08:00;94707.25;;;14.79;32.11
12219;BME280;6172;42.646;23.344;2024-03-22T11:10:28;94701.38;;;14.27;32.94
12219;BME280;6172;42.646;23.344;2024-03-22T11:13:01;94708.06;;;14.13;33.19
12219;BME280;6172;42.646;23.344;2024-03-22T11:15:28;94691.66;;;14.51;32.31
12219;BME280;6172;42.646;23.344;2024-03-22T11:17:56;94694.72;;;14.53;32.47
12219;BME280;6172;42.646;23.344;2024-03-22T11:20:22;94693.19;;;14.52;32.46
12219;BME280;6172;42.646;23.344;2024-03-22T11:22:51;94696.56;;;13.77;33.18
12219;BME280;6172;42.646;23.344;2024-03-22T11:25:17;94695.72;;;14.59;31.99
12219;BME280;6172;42.646;23.344;2024-03-22T11:27:44;94681.44;;;14.89;31.54
12219;BME280;6172;42.646;23.344;2024-03-22T11:30:10;94682.88;;;15.40;31.40
12219;BME280;6172;42.646;23.344;2024-03-22T11:32:38;94682.75;;;15.99;30.61
12219;BME280;6172;42.646;23.344;2024-03-22T11:35:11;94675.44;;;16.27;29.82
12219;BME280;6172;42.646;23.344;2024-03-22T11:37:38;94671.22;;;15.70;30.87
12219;BME280;6172;42.646;23.344;2024-03-22T11:40:05;94670.84;;;15.25;31.25
12219;BME280;6172;42.646;23.344;2024-03-22T11:42:34;94676.06;;;14.48;32.64
12219;BME280;6172;42.646;23.344;2024-03-22T11:45:01;94675.66;;;14.87;32.13
12219;BME280;6172;42.646;23.344;2024-03-22T11:47:29;94653.47;;;14.69;31.86
12219;BME280;6172;42.646;23.344;2024-03-22T11:49:55;94659.09;;;14.78;32.01
12219;BME280;6172;42.646;23.344;2024-03-22T11:52:25;94658.06;;;14.97;31.84
12219;BME280;6172;42.646;23.344;2024-03-22T11:54:52;94662.34;;;16.31;30.41
12219;BME280;6172;42.646;23.344;2024-03-22T11:57:20;94665.88;;;16.40;29.68
12219;BME280;6172;42.646;23.344;2024-03-22T11:59:46;94650.81;;;16.54;29.44
12219;BME280;6172;42.646;23.344;2024-03-22T12:02:13;94635.19;;;16.11;29.70
12219;BME280;6172;42.646;23.344;2024-03-22T12:04:41;94639.88;;;14.78;31.75
12219;BME280;6172;42.646;23.344;2024-03-22T12:07:10;94651.25;;;15.36;30.82
12219;BME280;6172;42.646;23.344;2024-03-22T12:09:38;94650.59;;;14.60;31.36
12219;BME280;6172;42.646;23.344;2024-03-22T12:12:05;94637.03;;;14.56;31.72
12219;BME280;6172;42.646;23.344;2024-03-22T12:14:33;94633.31;;;14.75;31.20
12219;BME280;6172;42.646;23.344;2024-03-22T12:17:02;94625.84;;;14.51;31.60
12219;BME280;6172;42.646;23.344;2024-03-22T12:19:28;94623.91;;;15.32;30.83
12219;BME280;6172;42.646;23.344;2024-03-22T12:21:55;94613.53;;;15.15;30.67
12219;BME280;6172;42.646;23.344;2024-03-22T12:24:21;94621.22;;;14.85;31.52
12219;BME280;6172;42.646;23.344;2024-03-22T12:26:50;94616.16;;;14.59;31.87
12219;BME280;6172;42.646;23.344;2024-03-22T12:29:16;94619.25;;;14.36;31.99
12219;BME280;6172;42.646;23.344;2024-03-22T12:31:44;94619.47;;;14.29;31.91
12219;BME280;6172;42.646;23.344;2024-03-22T12:34:10;94611.97;;;13.51;32.44
12219;BME280;6172;42.646;23.344;2024-03-22T12:36:37;94604.78;;;13.98;32.30
12219;BME280;6172;42.646;23.344;2024-03-22T12:39:03;94610.72;;;14.34;31.87
12219;BME280;6172;42.646;23.344;2024-03-22T12:41:30;94606.25;;;13.74;32.34
12219;BME280;6172;42.646;23.344;2024-03-22T12:43:58;94614.19;;;13.15;33.18
12219;BME280;6172;42.646;23.344;2024-03-22T12:46:26;94600.84;;;13.29;33.27
12219;BME280;6172;42.646;23.344;2024-03-22T12:48:53;94606.19;;;13.49;32.96
12219;BME280;6172;42.646;23.344;2024-03-22T12:51:20;94604.50;;;13.39;33.01
12219;BME280;6172;42.646;23.344;2024-03-22T12:53:46;94606.00;;;13.27;32.39
12219;BME280;6172;42.646;23.344;2024-03-22T12:56:14;94596.69;;;13.66;31.45
12219;BME280;6172;42.646;23.344;2024-03-22T12:58:40;94604.22;;;13.90;31.08
12219;BME280;6172;42.646;23.344;2024-03-22T13:01:09;94596.13;;;13.99;32.33
12219;BME280;6172;42.646;23.344;2024-03-22T13:03:36;94599.09;;;13.23;32.85
12219;BME280;6172;42.646;23.344;2024-03-22T13:06:03;94602.78;;;13.16;33.29